Bird City, KS

10:27 AM CST on February 07, 2016 (GMT -0600)
APRSWXNET | | Change Station
CLOSE
Current Station
Personal Weather Station
Location: Bird City, KS
Elevation: 3512 ft
Nearby Weather Stations

Elev 3512 ft 39.76 °N, 101.59 °W | Updated 25 minutes ago

Overcast
Overcast
32 °F
Feels Like 22 °F
N
15
Wind Variable Wind from NW
Gusts 21.0 mph

Today
High -- | Low -- °F
--% Chance of Precip.
Yesterday
High -- | Low -- °F
Precip. -- in
Pressure 30.30 in
Visibility 10.0 miles
Clouds Scattered Clouds 6000 ft
Overcast 7500 ft
Windchill 22 °F
Dew Point 23 °F
Humidity 69%
Rainfall in
Snow Depth Not available.
7:48 AM 6:12 PM
Waning Crescent, 1% visible
METAR KSYF 071615Z AUTO 33014G19KT 10SM SCT060 OVC075 00/M06 A3030 RMK AO2 T00031060
Pressure 30.30 in
Visibility 10.0 miles
Clouds Scattered Clouds 6000 ft
Overcast 7500 ft
Windchill 22 °F
Dew Point 23 °F
Humidity 69%
Rainfall in
Snow Depth Not available.
7:48 AM 6:12 PM
Waning Crescent, 1% visible
METAR KSYF 071615Z AUTO 33014G19KT 10SM SCT060 OVC075 00/M06 A3030 RMK AO2 T00031060

10-Day Weather Forecast

Almanac

Astronomy

Feb. 07, 2016 Rise Set
Actual Time
Civil Twilight
Nautical Twilight
Astronomical Twilight
Moon
Length of Visible Light
Length of Day
Tomorrow will be .
, % of the Moon is Illuminated

Today's Extremes

State Highs State Lows

Community

WunderPhotos

Upload Photos

1,891,221 photos uploaded!

WunderBlog® & News

Nearby

Air Quality

  Air Quality AQ Index Pollutant
Not available.

Snow Depth

Station Depth Elevation

Earthquake Activity

City Distance Mag. Time & Date
Minimum magnitude displayed is 2.5.

Coastal Water Temperatures

Place Temperature

Stations

Nearby Weather Stations

Station Location Temp. Windchill Dew Point Humidity Wind Precip. Elev Updated Type
                   

Watches & Warnings

There are currently no watches in effect.